Stations météo

réclame
Mon MeteoGroup
Fehmarnbelt/Grosstonne, Allemagne (10043): Température de l'air & dewpoint: 08.12.2019 04:00:00 - 14.12.2019 04:00:00 (CET)Fehmarnbelt/Grosstonne, Allemagne (10043): water temperature: 08.12.2019 04:00:00 - 14.12.2019 04:00:00 (CET)Fehmarnbelt/Grosstonne, Allemagne (10043): Vitesse du vent: 08.12.2019 04:00:00 - 14.12.2019 04:00:00 (CET)Fehmarnbelt/Grosstonne, Allemagne (10043): Direction du vent: 08.12.2019 04:00:00 - 14.12.2019 04:00:00 (CET)Fehmarnbelt/Grosstonne, Allemagne (10043): reduced air pressure: 08.12.2019 04:00:00 - 14.12.2019 04:00:00 (CET)
Date & Time tt [°C] td [°C] tw [°C] ff [km/h] ff [knt] dd ppp [hPa]
14.12.2019 04:00:00 2,2 1,5 7,1 26 14 S 981,3
14.12.2019 03:00:00 2,5 1,7 7,2 23 12 S 981,6
14.12.2019 02:00:00 3,2 1,4 7,2 26 14 SSE 981,9
14.12.2019 01:00:00 3,2 0,7 7,2 23 12 SSE 982,2
14.12.2019 00:00:00 3,0 0,4 7,4 23 12 SSE 982,7
13.12.2019 23:00:00 2,9 -0,1 7,4 25 13 S 983,1
13.12.2019 22:00:00 2,7 -0,3 7,4 25 13 SSE 983,1
13.12.2019 21:00:00 2,7 0,0 7,3 22 12 S 983,3
13.12.2019 20:00:00 2,5 0,2 7,3 31 17 SSE 983,0
13.12.2019 19:00:00 2,2 0,0 7,3 36 20 SE 983,2
13.12.2019 18:00:00 2,5 0,7 7,0 37 20 ESE 983,0
13.12.2019 17:00:00 2,9 0,7 7,0 41 22 ESE 982,8
13.12.2019 16:00:00 3,9 1,7 7,0 47 25 E 982,4
13.12.2019 15:00:00 4,2 1,5 7,1 45 24 E 982,0
13.12.2019 14:00:00 4,5 1,4 7,2 42 23 ESE 982,3
13.12.2019 13:00:00 4,2 1,0 7,2 44 24 ESE 982,6
13.12.2019 12:00:00 4,2 1,2 7,1 46 25 ESE 983,0
13.12.2019 11:00:00 3,7 1,4 7,1 45 24 ESE 983,6
13.12.2019 10:00:00 3,5 1,0 7,2 46 25 ESE 984,2
13.12.2019 09:00:00 4,0 1,7 7,2 51 28 SE 984,1
13.12.2019 08:00:00 3,9 1,2 7,2 53 29 SE 984,6
13.12.2019 07:00:00 4,2 1,9 6,9 48 26 SE 985,3
13.12.2019 06:00:00 4,2 2,0 6,8 51 28 SE 985,8
13.12.2019 05:00:00 4,2 1,7 6,8 52 28 SE 986,7
13.12.2019 04:00:00 4,0 1,7 6,8 49 27 SSE 987,9
13.12.2019 03:00:00 4,4 2,2 6,8 47 26 SSE 989,2
13.12.2019 02:00:00 4,7 2,7 6,8 43 23 SSE 990,2
13.12.2019 01:00:00 4,7 2,9 6,8 41 22 SSE 991,3
13.12.2019 00:00:00 4,9 3,0 6,8 34 19 S 992,5
12.12.2019 23:00:00 5,0 3,2 6,9 27 14 SSE 993,7
12.12.2019 22:00:00 4,7 2,2 7,0 26 14 S 994,4
12.12.2019 21:00:00 4,9 3,0 6,9 30 16 S 995,2
12.12.2019 20:00:00 5,2 3,0 6,9 29 16 SSW 995,8
12.12.2019 19:00:00 5,4 3,7 6,9 25 13 SSW 996,3
12.12.2019 18:00:00 5,4 3,7 7,0 27 14 SSW 996,6
12.12.2019 17:00:00 5,5 3,7 6,9 28 15 SSW 996,7
12.12.2019 16:00:00 5,7 4,0 6,9 27 14 SSW 997,2
12.12.2019 15:00:00 5,5 4,2 6,9 25 14 SSW 997,5
12.12.2019 14:00:00 5,5 4,2 6,9 27 14 SSW 997,7
12.12.2019 13:00:00 5,5 3,9 7,2 30 16 SSW 998,2
12.12.2019 12:00:00 5,2 3,7 7,3 29 15 SSW 998,6
12.12.2019 11:00:00 5,0 3,0 7,3 22 12 SSW 999,1
12.12.2019 10:00:00 5,5 2,9 7,4 28 15 SW 999,5
12.12.2019 09:00:00 5,5 2,7 7,4 32 18 SW 999,8
12.12.2019 08:00:00 5,5 3,5 7,3 33 18 WSW 999,6
12.12.2019 07:00:00 5,5 4,2 7,2 35 19 WSW 999,7
12.12.2019 06:00:00 5,4 4,7 7,2 27 14 WSW 999,8
12.12.2019 05:00:00 5,0 4,7 7,3 19 10 SW 1000,0
12.12.2019 04:00:00 4,7 4,4 7,3 18 10 SW 1000,5
12.12.2019 03:00:00 4,7 4,5 7,3 20 11 SW 1001,1
12.12.2019 02:00:00 4,7 4,5 7,4 16 9 SSW 1001,3
12.12.2019 01:00:00 4,7 4,5 7,4 17 9 SSW 1001,8
12.12.2019 00:00:00 4,7 4,5 7,2 17 9 SSW 1002,4
11.12.2019 23:00:00 5,0 4,7 7,1 17 9 SSW 1002,9
11.12.2019 22:00:00 5,0 4,7 7,2 17 9 SSW 1003,4
11.12.2019 21:00:00 5,2 4,9 7,2 18 10 SSW 1003,7
11.12.2019 20:00:00 5,2 4,7 7,2 18 10 SSW 1004,1
11.12.2019 19:00:00 5,2 4,7 7,3 18 10 SSW 1004,5
11.12.2019 18:00:00 5,4 4,9 7,3 16 9 S 1004,6
11.12.2019 17:00:00 5,4 4,9 7,4 18 10 SSW 1005,2
11.12.2019 16:00:00 5,4 5,0 7,4 19 10 SSW 1005,4
11.12.2019 15:00:00 5,2 4,7 7,4 23 12 SSW 1005,7
11.12.2019 14:00:00 5,4 4,7 7,4 24 13 SSW 1005,9
11.12.2019 13:00:00 5,5 4,5 7,4 34 18 SW 1006,3
11.12.2019 12:00:00 5,5 4,7 7,4 35 19 SW 1006,7
11.12.2019 11:00:00 5,2 4,4 7,4 31 17 SW 1007,4
11.12.2019 10:00:00 5,0 4,0 7,4 30 16 SSW 1007,5
11.12.2019 09:00:00 5,2 3,5 7,4 32 18 SSW 1007,2
11.12.2019 08:00:00 5,5 3,0 7,3 40 22 SSW 1007,0
11.12.2019 07:00:00 5,5 2,4 7,4 45 24 SSW 1006,9
11.12.2019 06:00:00 5,5 2,5 7,3 43 23 SSW 1006,9
11.12.2019 05:00:00 5,2 2,0 7,3 49 26 SSW 1006,6
11.12.2019 04:00:00 5,4 1,7 7,3 51 28 SSW 1007,1
11.12.2019 03:00:00 5,5 1,2 7,3 51 28 SSW 1007,8
11.12.2019 02:00:00 5,0 1,0 7,3 50 27 S 1008,5
11.12.2019 01:00:00 5,2 1,0 7,2 56 30 S 1008,9
11.12.2019 00:00:00 5,0 1,0 7,2 54 29 S 1010,3
10.12.2019 23:00:00 4,9 1,5 7,3 50 27 S 1011,5
10.12.2019 22:00:00 4,7 1,7 7,3 49 26 S 1012,9
10.12.2019 21:00:00 4,7 1,7 7,2 48 26 S 1014,6
10.12.2019 20:00:00 4,7 2,0 7,3 46 25 S 1015,5
10.12.2019 19:00:00 5,0 2,0 7,4 42 23 S 1016,6
10.12.2019 18:00:00 5,2 2,2 7,4 36 20 S 1017,3
10.12.2019 17:00:00 5,2 2,2 7,4 29 16 SSW 1018,5
10.12.2019 16:00:00 5,7 2,0 7,5 29 15 SSW 1019,0
10.12.2019 15:00:00 6,2 2,5 7,5 27 15 SSW 1019,4
10.12.2019 14:00:00 7,0 3,2 7,5 35 19 SW 1019,8
10.12.2019 13:00:00 7,5 3,0 7,5 34 18 WSW 1020,4
10.12.2019 12:00:00 6,9 3,2 7,6 29 16 W 1020,5
10.12.2019 11:00:00 6,7 2,9 7,6 27 15 W 1020,2
10.12.2019 10:00:00 6,7 2,4 7,6 26 14 W 1020,0
10.12.2019 09:00:00 6,2 1,5 7,6 23 12 W 1019,5
10.12.2019 08:00:00 6,0 1,2 7,7 29 16 WNW 1018,7
10.12.2019 07:00:00 6,0 1,5 7,8 33 18 WNW 1017,7
10.12.2019 06:00:00 6,0 0,0 8,1 35 19 NW 1016,6
10.12.2019 05:00:00 6,2 1,2 8,2 43 23 NW 1015,5
10.12.2019 04:00:00 6,2 -0,1 8,4 42 23 NW 1014,0
10.12.2019 03:00:00 6,2 0,2 8,4 46 25 NW 1012,6
10.12.2019 02:00:00 6,4 0,0 8,4 46 25 NW 1011,0
10.12.2019 01:00:00 6,5 1,5 8,5 51 28 WNW 1009,7
10.12.2019 00:00:00 6,5 0,0 8,4 53 28 NW 1008,0
09.12.2019 23:00:00 5,7 0,9 8,3 49 26 NW 1006,2
09.12.2019 22:00:00 5,9 1,2 8,1 56 30 NW 1004,9
09.12.2019 21:00:00 7,2 2,5 8,0 58 31 WNW 1002,2
09.12.2019 20:00:00 7,5 2,5 7,8 56 30 W 1000,6
09.12.2019 19:00:00 7,7 2,2 7,5 57 31 W 999,4
09.12.2019 18:00:00 7,7 3,7 7,6 50 27 W 998,3
09.12.2019 17:00:00 7,5 5,4 7,7 39 21 W 997,1
09.12.2019 16:00:00 5,0 4,0 7,8 36 19 W 996,1
09.12.2019 15:00:00 7,7 4,7 7,8 44 24 WSW 994,8
09.12.2019 14:00:00 7,5 4,7 7,8 45 24 SW 993,9
09.12.2019 13:00:00 8,0 4,5 7,7 46 25 WSW 993,2
09.12.2019 12:00:00 7,2 4,2 7,8 47 25 SW 993,2
09.12.2019 11:00:00 8,0 4,4 7,8 51 27 SW 992,8
09.12.2019 10:00:00 7,2 4,4 7,8 51 28 SW 992,3
09.12.2019 09:00:00 7,0 4,2 7,8 51 28 SW 991,9
09.12.2019 08:00:00 6,7 4,0 7,8 48 26 SW 991,2
09.12.2019 07:00:00 7,0 4,0 7,8 53 29 SW 990,8
09.12.2019 06:00:00 7,0 4,0 7,8 55 30 SW 990,6
09.12.2019 05:00:00 7,2 4,0 7,8 61 33 WSW 990,6
09.12.2019 04:00:00 7,2 4,2 7,8 56 30 WSW 990,2
09.12.2019 03:00:00 7,4 4,2 7,8 53 29 WSW 990,4
09.12.2019 02:00:00 7,2 4,2 7,8 50 27 SW 990,0
09.12.2019 01:00:00 7,4 4,2 7,8 53 29 SW 990,2
09.12.2019 00:00:00 7,7 4,2 7,8 54 29 SW 990,2
08.12.2019 23:00:00 7,7 4,7 7,9 54 29 WSW 990,5
08.12.2019 22:00:00 8,0 4,5 7,9 58 31 WSW 990,4
08.12.2019 21:00:00 7,9 5,5 7,9 47 25 WSW 990,8
08.12.2019 20:00:00 8,5 5,0 7,9 56 31 WSW 990,6
08.12.2019 19:00:00 8,5 5,7 7,9 55 30 WSW 990,7
08.12.2019 18:00:00 8,5 6,2 7,9 49 26 WSW 990,7
08.12.2019 17:00:00 8,7 6,0 7,9 44 24 W 990,7
08.12.2019 16:00:00 8,5 6,9 7,9 58 31 WSW 990,0
08.12.2019 15:00:00 9,2 7,5 7,8 48 26 WSW 989,8
08.12.2019 14:00:00 8,9 8,0 7,8 55 30 SW 989,8
08.12.2019 13:00:00 8,7 7,5 7,8 60 32 SW 990,1
08.12.2019 12:00:00 8,5 7,0 7,8 59 32 SW 990,9
08.12.2019 11:00:00 8,7 6,5 7,8 58 31 SW 992,0
08.12.2019 10:00:00 8,4 6,0 7,8 55 30 SW 992,9
08.12.2019 09:00:00 8,4 5,7 7,8 58 31 SW 993,9
08.12.2019 08:00:00 8,5 5,5 7,7 49 26 SW 995,4
08.12.2019 07:00:00 8,5 5,7 7,7 51 27 SW 996,4
08.12.2019 06:00:00 8,2 5,5 7,7 48 26 SW 997,6
08.12.2019 05:00:00 8,2 5,2 7,7 52 28 SW 999,2
08.12.2019 04:00:00 8,2 5,5 7,8 49 27 SW 1000,8

tt = Température de l'air
td = dewpoint
tw = water temperature
ff = Vitesse du vent
dd = Direction du vent
ppp = reduced air pressure

stations d'obs. à proximité